Terminal Aerodrome Forecast
Issued by NWS

Home | Current Version | Previous Version | Text Only | Print | Product List | Glossary On
Versions: 1 2 3 4 5 6 7 8 9 10 11 12 13 14 15 16 17 18 19 20 21 22 23 24 25 26 27 28 29
000
FTUS41 KALY 221659 AAA
TAFPSF
TAF AMD
KPSF 221659Z 2217/2312 01005KT 2SM -SN BR OVC025
     FM221900 01005KT 1SM -SN BR OVC015
     FM230000 VRB04KT 6SM BR OVC015=

USA.gov is the U.S. government's official web portal to all federal, state and local government web resources and services.